Time;durP1;ratioP1;P1;durP2;ratioP2;P2;SDS_P1;SDS_P2;PMS_P1;PMS_P2;Temp;Humidity;BMP_temperature;BMP_pressure;BME280_temperature;BME280_humidity;BME280_pressure;Samples;Min_cycle;Max_cycle;Signal;HPM_P1;HPM_P2
2022/05/29 00:02:13;;;;;;;4.60;1.23;;;8.40;99.90;;;;;;5018216;28;20493;-86
2022/05/29 00:04:41;;;;;;;3.50;1.20;;;8.40;99.90;;;;;;5022623;28;20923;-87
2022/05/29 00:07:14;;;;;;;3.08;1.30;;;8.40;99.90;;;;;;5018037;28;20836;-86
2022/05/29 00:09:47;;;;;;;3.85;1.30;;;8.40;99.90;;;;;;5016617;28;20407;-86
2022/05/29 00:12:17;;;;;;;4.20;1.20;;;8.40;99.90;;;;;;5022784;28;20406;-87
2022/05/29 00:14:47;;;;;;;3.65;1.40;;;8.30;99.90;;;;;;5012814;28;20471;-85
2022/05/29 00:17:17;;;;;;;3.93;1.40;;;8.30;99.90;;;;;;5016948;28;20411;-86
2022/05/29 00:19:46;;;;;;;5.00;1.35;;;8.30;99.90;;;;;;5016218;28;20403;-87
2022/05/29 00:22:20;;;;;;;2.65;1.10;;;8.20;99.90;;;;;;5015510;28;20478;-85
2022/05/29 00:24:49;;;;;;;3.70;1.10;;;8.20;99.90;;;;;;5020101;28;20410;-85
2022/05/29 00:27:17;;;;;;;6.47;1.30;;;8.20;99.90;;;;;;5016122;28;20430;-85
2022/05/29 00:29:45;;;;;;;4.63;1.40;;;8.30;99.90;;;;;;5020489;28;20419;-86
2022/05/29 00:32:13;;;;;;;3.10;1.52;;;8.20;99.90;;;;;;5018023;28;20405;-86
2022/05/29 00:34:41;;;;;;;3.90;1.40;;;8.20;99.90;;;;;;5014103;28;20417;-87
2022/05/29 00:37:11;;;;;;;4.63;1.60;;;8.20;99.90;;;;;;5023147;28;20374;-86
2022/05/29 00:39:41;;;;;;;5.32;1.67;;;8.20;99.90;;;;;;5011485;28;20435;-87
2022/05/29 00:42:12;;;;;;;2.40;1.27;;;8.10;99.90;;;;;;5015756;28;20404;-86
2022/05/29 00:44:41;;;;;;;5.32;1.88;;;8.10;99.90;;;;;;5013747;28;20523;-85
2022/05/29 00:47:18;;;;;;;3.63;1.42;;;8.10;99.90;;;;;;5013754;28;20388;-87
2022/05/29 00:49:49;;;;;;;2.55;1.50;;;8.00;99.90;;;;;;5015042;28;20418;-85
2022/05/29 00:52:18;;;;;;;2.95;1.45;;;8.00;99.90;;;;;;5016155;28;20459;-86
2022/05/29 00:54:53;;;;;;;3.05;1.40;;;8.00;99.90;;;;;;5017727;28;20409;-87
2022/05/29 00:57:55;;;;;;;4.80;1.37;;;8.00;99.90;;;;;;5024325;28;20755;-85
2022/05/29 01:00:26;;;;;;;4.10;1.60;;;7.90;99.90;;;;;;5015633;28;20404;-85
2022/05/29 01:02:57;;;;;;;5.60;1.80;;;8.00;99.90;;;;;;5017902;28;20444;-84
2022/05/29 01:05:28;;;;;;;4.45;1.75;;;7.80;99.90;;;;;;5021769;28;20879;-85
2022/05/29 01:08:24;;;;;;;3.10;1.70;;;7.80;99.90;;;;;;5011516;28;20403;-86
2022/05/29 01:11:12;;;;;;;3.00;1.50;;;7.70;99.90;;;;;;5019340;27;20488;-84
2022/05/29 01:14:00;;;;;;;3.83;1.50;;;7.70;99.90;;;;;;5019432;28;20761;-86
2022/05/29 01:16:36;;;;;;;4.55;1.55;;;7.70;99.90;;;;;;5015670;28;20415;-87
2022/05/29 01:19:39;;;;;;;3.25;1.42;;;7.70;99.90;;;;;;5018601;28;20517;-85
2022/05/29 01:22:41;;;;;;;4.85;1.80;;;7.70;99.90;;;;;;5009530;28;20395;-83
2022/05/29 01:25:21;;;;;;;3.97;1.80;;;7.60;99.90;;;;;;5010968;28;20397;-87
2022/05/29 01:28:08;;;;;;;4.93;1.83;;;7.70;99.90;;;;;;5042542;28;20414;-86
2022/05/29 01:30:47;;;;;;;2.50;1.70;;;7.70;99.90;;;;;;5018557;28;20410;-87
2022/05/29 01:33:29;;;;;;;4.23;1.87;;;7.70;99.90;;;;;;5014423;28;20401;-85
2022/05/29 01:36:11;;;;;;;4.75;2.00;;;7.60;99.90;;;;;;5011019;28;20897;-85
2022/05/29 01:38:54;;;;;;;4.30;1.63;;;7.70;99.90;;;;;;5010601;28;20805;-86
2022/05/29 01:41:27;;;;;;;3.95;1.75;;;7.70;99.90;;;;;;5014837;28;20732;-86
2022/05/29 01:44:07;;;;;;;4.50;1.83;;;7.60;99.90;;;;;;5011788;28;20792;-86
2022/05/29 01:46:36;;;;;;;2.90;1.77;;;7.60;99.90;;;;;;5020215;28;20401;-86
2022/05/29 01:49:31;;;;;;;3.33;1.93;;;7.50;99.90;;;;;;5019171;28;20414;-86
2022/05/29 01:52:12;;;;;;;3.47;1.50;;;7.50;99.90;;;;;;5019953;28;20462;-86
2022/05/29 01:54:55;;;;;;;6.90;2.10;;;7.40;99.90;;;;;;5020434;28;20452;-86
2022/05/29 01:57:31;;;;;;;4.18;2.10;;;7.40;99.90;;;;;;5017977;28;20768;-84
2022/05/29 02:00:11;;;;;;;4.93;2.08;;;7.40;99.90;;;;;;5029525;28;20457;-87
2022/05/29 02:03:15;;;;;;;3.70;2.10;;;7.40;99.90;;;;;;5020122;28;20401;-86
2022/05/29 02:05:54;;;;;;;5.22;2.33;;;7.40;99.90;;;;;;5025802;28;20416;-85
2022/05/29 02:08:32;;;;;;;5.07;2.50;;;7.40;99.90;;;;;;5020078;28;20407;-86
2022/05/29 02:11:07;;;;;;;3.33;2.20;;;7.40;99.90;;;;;;5020780;28;20425;-83
2022/05/29 02:13:50;;;;;;;3.63;2.20;;;7.30;99.90;;;;;;5016352;28;20391;-86
2022/05/29 02:16:41;;;;;;;4.20;2.47;;;7.30;99.90;;;;;;5018490;28;20405;-86
2022/05/29 02:19:17;;;;;;;5.75;2.50;;;7.20;99.90;;;;;;5015977;28;20496;-87
2022/05/29 02:22:01;;;;;;;3.50;2.10;;;7.20;99.90;;;;;;5025371;28;20404;-88
2022/05/29 02:24:36;;;;;;;5.03;2.00;;;7.20;99.90;;;;;;5051163;28;20446;-87
2022/05/29 02:27:14;;;;;;;3.40;2.00;;;7.10;99.90;;;;;;5011386;28;20443;-86
2022/05/29 02:29:42;;;;;;;4.07;1.88;;;7.10;99.90;;;;;;5016608;28;20415;-88
2022/05/29 02:32:10;;;;;;;4.63;1.88;;;7.00;99.90;;;;;;5018709;28;20428;-84
2022/05/29 02:35:00;;;;;;;4.22;1.70;;;7.00;99.90;;;;;;5019958;28;20398;-84
2022/05/29 02:38:00;;;;;;;3.35;1.65;;;7.00;99.90;;;;;;5017103;28;20917;-86
2022/05/29 02:40:57;;;;;;;2.92;1.83;;;7.10;99.90;;;;;;5018719;28;20414;-86
2022/05/29 02:43:43;;;;;;;3.47;1.60;;;7.10;99.90;;;;;;5018523;28;20481;-85
2022/05/29 02:46:23;;;;;;;2.13;1.60;;;7.10;99.90;;;;;;5023809;28;20520;-86
2022/05/29 02:48:58;;;;;;;4.20;1.90;;;7.00;99.90;;;;;;5019188;28;20470;-86
2022/05/29 02:51:39;;;;;;;5.85;2.00;;;7.00;99.90;;;;;;5018006;28;20394;-86
2022/05/29 02:54:10;;;;;;;4.60;2.53;;;7.00;99.90;;;;;;5021288;28;20415;-86
2022/05/29 02:56:38;;;;;;;3.33;2.00;;;7.10;99.90;;;;;;5020531;28;20896;-85
2022/05/29 02:59:06;;;;;;;4.32;2.10;;;7.10;99.90;;;;;;5023404;28;20486;-85
2022/05/29 03:01:43;;;;;;;5.93;2.70;;;7.00;99.90;;;;;;5019921;28;20402;-87
2022/05/29 03:04:13;;;;;;;6.00;2.25;;;7.00;99.90;;;;;;5022915;28;20401;-85
2022/05/29 03:06:59;;;;;;;6.32;2.72;;;7.00;99.90;;;;;;5018417;28;20457;-86
2022/05/29 03:09:44;;;;;;;4.95;2.60;;;7.10;99.90;;;;;;5017600;28;20407;-86
2022/05/29 03:12:47;;;;;;;5.80;2.90;;;7.10;99.90;;;;;;5017401;28;20457;-86
2022/05/29 03:15:28;;;;;;;5.47;2.90;;;7.10;99.90;;;;;;5015040;28;20414;-84
2022/05/29 03:18:24;;;;;;;5.03;2.92;;;7.10;99.90;;;;;;5020561;28;20414;-85
2022/05/29 03:21:06;;;;;;;5.47;2.90;;;7.20;99.90;;;;;;5021337;28;20395;-85
2022/05/29 03:24:06;;;;;;;4.72;2.92;;;7.10;99.90;;;;;;5017905;28;20407;-86
2022/05/29 03:26:50;;;;;;;6.78;3.03;;;7.10;99.90;;;;;;5027634;28;20398;-87
2022/05/29 03:29:41;;;;;;;5.90;2.50;;;7.10;99.90;;;;;;5018571;28;20403;-86
2022/05/29 03:32:09;;;;;;;4.80;2.40;;;7.10;99.90;;;;;;5010178;28;20414;-86
2022/05/29 03:34:40;;;;;;;4.57;2.50;;;7.10;99.90;;;;;;5018675;28;20458;-86
2022/05/29 03:37:08;;;;;;;6.53;2.80;;;7.10;99.90;;;;;;5016970;28;20411;-86
2022/05/29 03:39:36;;;;;;;4.93;2.20;;;7.10;99.90;;;;;;5009932;28;20486;-85
2022/05/29 03:42:05;;;;;;;3.92;2.17;;;7.10;99.90;;;;;;5014316;28;20499;-86
2022/05/29 03:44:32;;;;;;;3.30;2.33;;;7.20;99.90;;;;;;5015331;28;20399;-86
2022/05/29 03:47:00;;;;;;;5.13;2.45;;;7.10;99.90;;;;;;5020103;28;20401;-84
2022/05/29 03:49:28;;;;;;;5.60;2.42;;;7.20;99.90;;;;;;5016513;28;20908;-86
2022/05/29 03:51:55;;;;;;;5.53;2.50;;;7.20;99.90;;;;;;5015133;28;20480;-86
2022/05/29 03:54:23;;;;;;;5.13;2.40;;;7.20;99.90;;;;;;5017357;28;20409;-85
2022/05/29 03:56:51;;;;;;;6.82;2.80;;;7.20;99.90;;;;;;5021073;28;20474;-86
2022/05/29 03:59:18;;;;;;;3.50;2.47;;;7.30;99.90;;;;;;5022035;28;20390;-87
2022/05/29 04:01:46;;;;;;;6.88;2.70;;;7.30;99.90;;;;;;5015577;28;20531;-87
2022/05/29 04:04:14;;;;;;;8.37;3.23;;;7.30;99.90;;;;;;5023269;28;20493;-86
2022/05/29 04:06:42;;;;;;;5.75;3.05;;;7.30;99.90;;;;;;5014828;28;20399;-87
2022/05/29 04:12:05;;;;;;;8.88;3.60;;;7.30;99.90;;;;;;5021389;28;20899;-87
2022/05/29 04:14:39;;;;;;;6.70;2.45;;;7.40;99.90;;;;;;5016133;28;20407;-88
2022/05/29 04:17:15;;;;;;;5.82;2.50;;;7.40;99.90;;;;;;5017206;28;20437;-87
2022/05/29 04:19:46;;;;;;;4.47;2.13;;;7.40;99.90;;;;;;5021041;28;20397;-87
2022/05/29 04:22:17;;;;;;;5.55;1.90;;;7.40;99.90;;;;;;5021275;28;20404;-87
2022/05/29 04:24:46;;;;;;;4.57;2.10;;;7.40;99.90;;;;;;5050752;28;20394;-86
2022/05/29 04:27:15;;;;;;;4.45;2.08;;;7.40;99.90;;;;;;5014884;28;20467;-85
2022/05/29 04:29:43;;;;;;;5.00;1.90;;;7.50;99.90;;;;;;5014256;28;20403;-86
2022/05/29 04:34:58;;;;;;;5.72;2.33;;;7.50;99.90;;;;;;5019181;28;20726;-85
2022/05/29 04:37:27;;;;;;;5.63;2.10;;;7.60;99.90;;;;;;5023221;28;20488;-86
2022/05/29 04:39:55;;;;;;;5.32;2.17;;;7.60;99.90;;;;;;5019469;28;20397;-86
2022/05/29 04:42:23;;;;;;;3.25;1.92;;;7.60;99.90;;;;;;5016383;28;20457;-81
2022/05/29 04:44:51;;;;;;;6.47;2.20;;;7.60;99.90;;;;;;5019536;28;20401;-86
2022/05/29 04:47:19;;;;;;;3.45;1.70;;;7.70;99.90;;;;;;5016164;28;20402;-86
2022/05/29 04:49:47;;;;;;;3.10;1.70;;;7.70;99.90;;;;;;5021185;28;20492;-86
2022/05/29 04:52:17;;;;;;;4.20;1.65;;;7.60;99.90;;;;;;5017199;28;20449;-86
2022/05/29 04:54:45;;;;;;;5.20;2.00;;;7.70;99.90;;;;;;5008744;28;20507;-87
2022/05/29 04:57:12;;;;;;;4.40;1.77;;;7.70;99.90;;;;;;5013678;28;20415;-87
2022/05/29 04:59:40;;;;;;;4.55;1.95;;;7.70;99.90;;;;;;5012272;28;20494;-87
2022/05/29 05:02:08;;;;;;;3.97;1.70;;;7.80;99.90;;;;;;5023122;28;20504;-87
2022/05/29 05:04:36;;;;;;;5.20;2.10;;;7.80;99.90;;;;;;5018811;28;20402;-87
2022/05/29 05:07:04;;;;;;;3.92;1.90;;;7.90;99.90;;;;;;5016734;28;20448;-86
2022/05/29 05:09:33;;;;;;;5.03;1.80;;;7.90;99.90;;;;;;5016719;28;20403;-88
2022/05/29 05:12:00;;;;;;;4.47;1.63;;;7.90;99.90;;;;;;5024662;28;20439;-86
2022/05/29 05:14:28;;;;;;;4.55;1.60;;;8.00;99.90;;;;;;5019610;28;20410;-87
2022/05/29 05:16:56;;;;;;;3.40;1.70;;;8.00;99.90;;;;;;5019043;28;20583;-87
2022/05/29 05:19:24;;;;;;;4.93;1.67;;;8.10;99.90;;;;;;5016301;28;20403;-86
2022/05/29 05:21:52;;;;;;;3.15;1.50;;;8.10;99.90;;;;;;5014216;28;20403;-86
2022/05/29 05:24:21;;;;;;;5.07;1.50;;;8.30;99.90;;;;;;5009993;28;20440;-87
2022/05/29 05:26:49;;;;;;;4.68;1.67;;;8.30;99.90;;;;;;5021899;28;20419;-86
2022/05/29 05:29:17;;;;;;;4.57;1.45;;;8.40;99.90;;;;;;5019357;28;20413;-87
2022/05/29 05:31:45;;;;;;;4.13;1.60;;;8.40;99.90;;;;;;5022124;28;20492;-89
2022/05/29 05:34:13;;;;;;;4.55;1.45;;;8.40;99.90;;;;;;5036032;28;20411;-87
2022/05/29 05:36:40;;;;;;;4.50;1.60;;;8.40;99.90;;;;;;5020505;28;20490;-86
2022/05/29 05:39:09;;;;;;;5.55;1.58;;;8.40;99.90;;;;;;5015452;28;20414;-87
2022/05/29 05:41:36;;;;;;;5.30;1.50;;;8.50;99.90;;;;;;5023035;28;20938;-86
2022/05/29 05:44:05;;;;;;;4.13;1.35;;;8.50;99.90;;;;;;5029746;28;20478;-86
2022/05/29 05:46:33;;;;;;;5.38;1.80;;;8.60;99.90;;;;;;5021225;28;20429;-88
2022/05/29 05:49:00;;;;;;;3.50;1.30;;;8.70;99.90;;;;;;5023439;28;20409;-86
2022/05/29 05:51:28;;;;;;;4.07;1.42;;;8.70;99.90;;;;;;5013151;28;20444;-87
2022/05/29 05:53:56;;;;;;;5.07;1.42;;;8.70;99.90;;;;;;5030447;28;20480;-86
2022/05/29 05:56:23;;;;;;;5.32;1.30;;;8.70;99.90;;;;;;5020083;28;20414;-87
2022/05/29 05:58:51;;;;;;;3.83;1.30;;;8.80;99.90;;;;;;5023185;28;20895;-87
2022/05/29 06:01:19;;;;;;;3.65;1.20;;;8.80;99.90;;;;;;5002635;28;20435;-87
2022/05/29 06:03:49;;;;;;;3.85;1.20;;;8.90;99.90;;;;;;5021662;28;20399;-86
2022/05/29 06:06:17;;;;;;;4.78;1.30;;;9.10;99.90;;;;;;5019503;28;20413;-87
2022/05/29 06:08:45;;;;;;;2.97;1.05;;;9.10;99.90;;;;;;5019637;28;20483;-89
2022/05/29 06:11:13;;;;;;;4.78;1.20;;;9.10;99.90;;;;;;5022083;28;20428;-86
2022/05/29 06:13:41;;;;;;;3.78;1.40;;;9.10;99.90;;;;;;5026982;28;20403;-88
2022/05/29 06:16:09;;;;;;;4.40;1.40;;;9.10;99.90;;;;;;5012278;28;20438;-88
2022/05/29 06:18:37;;;;;;;4.47;1.37;;;9.10;99.90;;;;;;5023132;28;20392;-88
2022/05/29 06:21:05;;;;;;;4.65;1.30;;;9.20;99.90;;;;;;5023979;28;20434;-86
2022/05/29 06:23:35;;;;;;;4.35;1.48;;;9.30;99.90;;;;;;5022469;28;20425;-87
2022/05/29 06:26:04;;;;;;;5.43;1.40;;;9.40;99.90;;;;;;5018832;28;20769;-87
2022/05/29 06:28:33;;;;;;;4.63;1.33;;;9.50;99.90;;;;;;5019424;28;20433;-88
2022/05/29 06:31:05;;;;;;;4.07;1.38;;;9.40;99.90;;;;;;5022187;28;20454;-86
2022/05/29 06:33:34;;;;;;;3.63;1.30;;;9.40;99.90;;;;;;5017399;28;20472;-87
2022/05/29 06:36:13;;;;;;;3.25;1.40;;;9.40;99.90;;;;;;5025407;28;20505;-87
2022/05/29 06:38:42;;;;;;;3.75;1.17;;;9.50;99.90;;;;;;5018432;28;20426;-87
2022/05/29 06:41:11;;;;;;;4.78;1.38;;;9.50;99.90;;;;;;5024908;28;20419;-87
2022/05/29 06:43:41;;;;;;;4.10;1.52;;;9.50;99.90;;;;;;5014554;28;20412;-85
2022/05/29 06:46:10;;;;;;;4.28;1.10;;;9.60;99.90;;;;;;5025592;28;20385;-87
2022/05/29 06:48:40;;;;;;;6.07;1.27;;;9.70;99.90;;;;;;5020885;28;20403;-86
2022/05/29 06:51:14;;;;;;;5.65;1.30;;;9.80;99.90;;;;;;5012247;28;20882;-86
2022/05/29 06:53:42;;;;;;;4.27;1.70;;;9.80;99.90;;;;;;5015390;28;20885;-87
2022/05/29 06:56:12;;;;;;;3.13;1.10;;;10.00;99.90;;;;;;5023590;28;20801;-86
2022/05/29 06:58:40;;;;;;;4.03;1.25;;;10.10;99.90;;;;;;5023193;28;20397;-87
2022/05/29 07:06:59;;;;;;;5.40;1.20;;;10.10;99.90;;;;;;5012115;28;20408;-87
2022/05/29 07:09:37;;;;;;;2.70;1.10;;;10.10;99.90;;;;;;5013935;28;20407;-86
2022/05/29 07:12:07;;;;;;;2.13;1.00;;;10.10;99.90;;;;;;5022783;27;20404;-88
2022/05/29 07:14:40;;;;;;;6.30;1.37;;;10.10;99.90;;;;;;5050614;27;20412;-88
2022/05/29 07:17:08;;;;;;;3.55;1.10;;;10.20;99.90;;;;;;5017450;28;20466;-86
2022/05/29 07:19:36;;;;;;;3.35;1.27;;;10.30;99.90;;;;;;5016849;28;20393;-85
2022/05/29 07:22:05;;;;;;;3.03;1.20;;;10.30;99.90;;;;;;5020850;27;20433;-86
2022/05/29 07:24:35;;;;;;;3.65;1.17;;;10.30;99.90;;;;;;5019148;28;20474;-87
2022/05/29 07:27:03;;;;;;;4.72;1.20;;;10.40;99.90;;;;;;5011986;28;20392;-87
2022/05/29 07:29:31;;;;;;;4.03;1.40;;;10.40;99.90;;;;;;5014152;28;20391;-87
2022/05/29 07:32:00;;;;;;;6.15;1.38;;;10.40;99.90;;;;;;5027979;28;20430;-86
2022/05/29 07:34:28;;;;;;;3.50;1.17;;;10.30;99.90;;;;;;5020740;28;20403;-88
2022/05/29 07:37:08;;;;;;;2.83;1.15;;;10.20;99.90;;;;;;5021672;28;20409;-83
2022/05/29 07:39:42;;;;;;;2.97;1.20;;;10.20;99.90;;;;;;5030437;28;20969;-85
2022/05/29 07:44:57;;;;;;;4.10;1.10;;;10.20;99.90;;;;;;5020313;27;20440;-86
2022/05/29 07:47:27;;;;;;;5.47;1.00;;;10.30;99.90;;;;;;5021953;28;20491;-85
2022/05/29 07:49:59;;;;;;;2.35;1.10;;;10.20;99.90;;;;;;5026851;28;20493;-86
2022/05/29 07:52:27;;;;;;;3.90;1.10;;;10.20;99.90;;;;;;5020899;28;20414;-86
2022/05/29 07:54:55;;;;;;;2.70;1.00;;;10.30;99.90;;;;;;5018612;28;20411;-88
2022/05/29 07:57:23;;;;;;;1.60;1.05;;;10.20;99.90;;;;;;5017754;28;20955;-87
2022/05/29 07:59:51;;;;;;;5.40;2.80;;;10.20;99.90;;;;;;5023340;28;20490;-85
2022/05/29 08:02:18;;;;;;;6.53;3.13;;;10.20;99.90;;;;;;5016227;28;20390;-81
2022/05/29 08:04:47;;;;;;;4.10;1.33;;;10.20;99.90;;;;;;5019257;28;20420;-85
2022/05/29 08:07:17;;;;;;;1.75;0.85;;;10.20;99.90;;;;;;5017295;28;20504;-81
2022/05/29 08:09:45;;;;;;;4.05;1.10;;;10.20;99.90;;;;;;5024759;28;20413;-84
2022/05/29 08:12:13;;;;;;;2.75;1.08;;;10.20;99.90;;;;;;5022011;28;20437;-82
2022/05/29 08:14:41;;;;;;;2.85;1.00;;;10.30;99.90;;;;;;5055060;28;20402;-85
2022/05/29 08:17:09;;;;;;;2.38;0.88;;;10.30;99.90;;;;;;5025265;28;20444;-84
2022/05/29 08:19:38;;;;;;;1.40;0.75;;;10.30;99.90;;;;;;5054527;28;20442;-86
2022/05/29 08:22:06;;;;;;;3.13;0.80;;;10.30;99.90;;;;;;5029858;28;20406;-87
2022/05/29 08:30:43;;;;;;;1.67;0.90;;;10.40;99.90;;;;;;5021641;28;20467;-88
2022/05/29 08:33:15;;;;;;;3.58;0.70;;;10.40;99.90;;;;;;5024868;28;20843;-82
2022/05/29 08:35:46;;;;;;;2.50;0.90;;;10.40;99.90;;;;;;5023294;28;20435;-87
2022/05/29 08:38:16;;;;;;;2.70;0.90;;;10.30;99.90;;;;;;5021048;28;20411;-86
2022/05/29 08:40:47;;;;;;;3.35;0.90;;;10.30;99.90;;;;;;5025028;28;20405;-81
2022/05/29 08:43:25;;;;;;;1.90;0.80;;;10.30;99.90;;;;;;5021304;28;20582;-87
2022/05/29 08:45:53;;;;;;;2.05;0.70;;;10.20;99.90;;;;;;5023209;28;20885;-84
2022/05/29 08:48:24;;;;;;;4.15;0.95;;;10.20;99.90;;;;;;5019861;28;20459;-86
2022/05/29 08:51:10;;;;;;;2.75;0.88;;;10.30;99.90;;;;;;5026239;28;20477;-85
2022/05/29 08:54:12;;;;;;;3.83;0.85;;;10.40;99.90;;;;;;5016684;28;20841;-88
2022/05/29 08:56:50;;;;;;;1.27;0.80;;;10.40;99.90;;;;;;5024302;28;20406;-87
2022/05/29 08:59:59;;;;;;;1.25;0.70;;;10.40;99.90;;;;;;5014708;28;20927;-83
2022/05/29 09:02:40;;;;;;;2.10;0.90;;;10.30;99.90;;;;;;5013794;28;20417;-87
2022/05/29 09:05:44;;;;;;;2.05;0.80;;;10.20;99.90;;;;;;5019792;28;20404;-87
2022/05/29 09:08:17;;;;;;;1.35;0.80;;;10.20;99.90;;;;;;5026573;28;20524;-86
2022/05/29 09:10:49;;;;;;;2.58;0.70;;;10.30;99.90;;;;;;5021431;28;20405;-86
2022/05/29 09:13:27;;;;;;;4.45;0.80;;;10.40;99.90;;;;;;5023417;28;20402;-87
2022/05/29 09:16:01;;;;;;;11.90;2.03;;;10.50;99.90;;;;;;5035794;28;20406;-87
2022/05/29 09:18:38;;;;;;;2.85;0.85;;;10.60;99.90;;;;;;5008536;28;20923;-87
2022/05/29 09:21:37;;;;;;;5.00;1.17;;;10.60;99.90;;;;;;5023703;28;20385;-85
2022/05/29 09:24:21;;;;;;;2.27;0.90;;;10.70;99.90;;;;;;5019971;28;20471;-86
2022/05/29 09:26:49;;;;;;;9.10;2.03;;;10.70;99.90;;;;;;5022830;28;20387;-86
2022/05/29 09:29:16;;;;;;;1.90;1.05;;;10.70;99.90;;;;;;5008695;28;20478;-83
2022/05/29 09:31:45;;;;;;;2.10;0.90;;;10.80;99.90;;;;;;5011748;28;20403;-85
2022/05/29 09:34:13;;;;;;;1.88;0.68;;;10.80;99.90;;;;;;5015249;28;20813;-86
2022/05/29 09:37:08;;;;;;;3.20;1.10;;;10.90;99.90;;;;;;5020637;28;20440;-87
2022/05/29 09:39:47;;;;;;;2.65;0.80;;;11.00;99.90;;;;;;5021984;28;20426;-87
2022/05/29 09:42:42;;;;;;;5.65;1.30;;;11.00;99.90;;;;;;5013346;28;20770;-85
2022/05/29 09:45:15;;;;;;;2.40;0.85;;;11.00;99.90;;;;;;5014133;28;20413;-86
2022/05/29 09:50:45;;;;;;;2.80;0.80;;;10.50;99.90;;;;;;5020324;28;20394;-85
2022/05/29 09:53:31;;;;;;;2.25;0.90;;;10.40;99.90;;;;;;5012576;28;20399;-86
2022/05/29 09:56:03;;;;;;;2.08;0.80;;;10.40;99.90;;;;;;5014815;28;20498;-87
2022/05/29 09:58:47;;;;;;;1.15;0.60;;;10.60;99.90;;;;;;5017912;28;20776;-87
2022/05/29 10:01:27;;;;;;;1.73;0.80;;;10.90;99.90;;;;;;5019930;28;20403;-87
2022/05/29 10:03:57;;;;;;;5.20;1.03;;;11.00;99.90;;;;;;5050458;28;20411;-87
2022/05/29 10:06:33;;;;;;;1.10;0.70;;;10.90;99.90;;;;;;5009050;28;20393;-88
2022/05/29 10:09:08;;;;;;;4.50;1.20;;;10.80;99.90;;;;;;5014130;28;20907;-87
2022/05/29 10:11:39;;;;;;;2.10;0.70;;;10.80;99.90;;;;;;5019094;28;20777;-87
2022/05/29 10:14:21;;;;;;;3.27;0.70;;;10.80;99.90;;;;;;5021495;28;20432;-87
2022/05/29 10:16:53;;;;;;;1.40;0.70;;;10.80;99.90;;;;;;5016373;28;20654;-87
2022/05/29 10:19:51;;;;;;;2.03;0.90;;;10.80;99.90;;;;;;5020481;28;20406;-88
2022/05/29 10:22:38;;;;;;;2.15;0.80;;;10.80;99.90;;;;;;5021921;28;20468;-87
2022/05/29 10:25:20;;;;;;;1.10;0.60;;;10.70;99.90;;;;;;5011232;28;20477;-87
2022/05/29 10:27:51;;;;;;;1.30;0.50;;;10.80;99.90;;;;;;5014363;28;20406;-87
2022/05/29 10:30:36;;;;;;;2.17;0.77;;;10.70;99.90;;;;;;5023838;28;20434;-87
2022/05/29 10:33:27;;;;;;;1.52;0.60;;;10.70;99.90;;;;;;5042621;28;20439;-85
2022/05/29 10:36:15;;;;;;;1.00;0.50;;;10.70;99.90;;;;;;5046893;27;20418;-87
2022/05/29 10:38:45;;;;;;;0.70;0.57;;;10.80;99.90;;;;;;5018731;28;20562;-86
2022/05/29 10:41:30;;;;;;;1.45;0.80;;;10.90;99.90;;;;;;5020719;28;20438;-85
2022/05/29 10:43:58;;;;;;;0.63;0.55;;;11.00;99.90;;;;;;5015227;28;20761;-86
2022/05/29 10:46:48;;;;;;;1.42;0.70;;;11.10;99.90;;;;;;5018881;28;20444;-88
2022/05/29 10:49:34;;;;;;;1.00;0.60;;;11.20;99.90;;;;;;5020457;28;20443;-87
2022/05/29 10:52:15;;;;;;;1.20;0.50;;;11.40;99.90;;;;;;5021990;28;20991;-87
2022/05/29 10:54:44;;;;;;;0.95;0.50;;;11.80;99.90;;;;;;5016055;28;20405;-87
2022/05/29 10:57:39;;;;;;;0.63;0.50;;;12.00;99.90;;;;;;5022345;28;20408;-87
2022/05/29 11:00:21;;;;;;;0.75;0.40;;;11.90;99.90;;;;;;5027524;28;20438;-86
2022/05/29 11:03:17;;;;;;;1.27;0.68;;;12.00;99.90;;;;;;5019262;28;20430;-86
2022/05/29 11:06:20;;;;;;;1.45;0.60;;;12.10;99.90;;;;;;5015898;28;20453;-87
2022/05/29 11:09:07;;;;;;;1.47;0.50;;;12.20;99.90;;;;;;5017800;28;20454;-85
2022/05/29 11:12:00;;;;;;;2.15;0.73;;;12.00;99.90;;;;;;5019404;28;20399;-86
2022/05/29 11:14:52;;;;;;;2.20;0.60;;;11.80;99.90;;;;;;5013840;28;20411;-86
2022/05/29 11:17:44;;;;;;;2.47;0.80;;;11.60;99.90;;;;;;5020846;28;20426;-87
2022/05/29 11:20:38;;;;;;;1.40;0.70;;;11.50;99.90;;;;;;5017089;28;20490;-85
2022/05/29 11:23:17;;;;;;;2.28;0.90;;;11.30;99.90;;;;;;5022520;28;20418;-86
2022/05/29 11:26:04;;;;;;;2.60;0.82;;;11.30;99.90;;;;;;5023289;28;20426;-86
2022/05/29 11:28:52;;;;;;;2.33;0.80;;;11.30;99.90;;;;;;5022381;28;20434;-86
2022/05/29 11:31:54;;;;;;;1.80;0.50;;;11.20;99.90;;;;;;5025093;28;20815;-87
2022/05/29 11:34:28;;;;;;;1.33;0.52;;;11.20;99.90;;;;;;5017204;28;20407;-85
2022/05/29 11:37:26;;;;;;;1.50;0.70;;;11.20;99.90;;;;;;5010447;28;20480;-87
2022/05/29 11:39:58;;;;;;;1.50;0.70;;;11.30;99.90;;;;;;5016064;28;20404;-86
2022/05/29 11:43:12;;;;;;;1.33;0.67;;;11.30;99.90;;;;;;5025815;28;20935;-86
2022/05/29 11:51:46;;;;;;;2.78;1.20;;;11.40;99.90;;;;;;5025126;28;20418;-86
2022/05/29 11:54:34;;;;;;;3.05;1.35;;;11.30;99.90;;;;;;5017040;28;20393;-86
2022/05/29 11:57:07;;;;;;;1.95;1.10;;;11.40;99.90;;;;;;5019139;28;20387;-88
2022/05/29 12:00:03;;;;;;;3.10;1.00;;;11.40;99.90;;;;;;5022519;28;20732;-86
2022/05/29 12:03:12;;;;;;;3.13;1.70;;;11.40;99.90;;;;;;5021121;28;20447;-86
2022/05/29 12:05:47;;;;;;;1.15;0.70;;;11.50;99.90;;;;;;5016623;28;20405;-87
2022/05/29 12:08:24;;;;;;;2.15;1.33;;;11.60;99.90;;;;;;5014050;28;20407;-87
2022/05/29 12:10:59;;;;;;;1.13;0.80;;;11.80;99.90;;;;;;5015713;28;20403;-85
2022/05/29 12:13:40;;;;;;;1.10;0.80;;;11.90;99.90;;;;;;5015953;28;20457;-86
2022/05/29 12:16:12;;;;;;;1.42;1.20;;;12.10;99.90;;;;;;5010914;28;20403;-87
2022/05/29 12:18:47;;;;;;;4.05;3.03;;;12.20;99.90;;;;;;5010330;28;20826;-85
2022/05/29 12:21:27;;;;;;;0.93;0.70;;;12.30;99.90;;;;;;5012037;28;20410;-86
2022/05/29 12:24:00;;;;;;;2.17;1.30;;;12.30;99.90;;;;;;5020152;28;20379;-87
2022/05/29 12:26:38;;;;;;;2.00;1.10;;;12.30;99.90;;;;;;5024768;28;20424;-86
2022/05/29 12:29:12;;;;;;;2.83;1.00;;;12.40;99.90;;;;;;5021090;28;20517;-86
2022/05/29 12:31:50;;;;;;;3.05;0.80;;;12.40;99.90;;;;;;5014024;28;20439;-85
2022/05/29 12:34:26;;;;;;;0.90;0.70;;;12.40;99.90;;;;;;5015628;28;20407;-86
2022/05/29 12:37:20;;;;;;;3.17;0.80;;;12.20;99.90;;;;;;5020001;28;20408;-87
2022/05/29 12:40:26;;;;;;;1.00;0.60;;;12.10;99.90;;;;;;5013723;28;20880;-87
2022/05/29 12:43:13;;;;;;;0.80;0.60;;;12.10;99.90;;;;;;5009330;28;20391;-86
2022/05/29 12:45:48;;;;;;;1.40;0.80;;;11.90;99.90;;;;;;5014945;28;20704;-86
2022/05/29 12:48:54;;;;;;;1.27;0.85;;;11.90;99.90;;;;;;5013092;28;20403;-88
2022/05/29 12:51:28;;;;;;;2.70;0.80;;;11.80;99.90;;;;;;5023780;28;20767;-88
2022/05/29 12:54:34;;;;;;;1.40;0.73;;;12.00;99.90;;;;;;5013363;28;20409;-86
2022/05/29 12:57:14;;;;;;;4.00;0.70;;;12.20;99.90;;;;;;5015771;28;20388;-86
2022/05/29 13:00:03;;;;;;;1.13;0.80;;;12.50;99.90;;;;;;5016333;28;20407;-86
2022/05/29 13:02:59;;;;;;;1.08;0.80;;;12.60;99.90;;;;;;5045792;28;20396;-85
2022/05/29 13:05:49;;;;;;;0.88;0.60;;;12.60;99.90;;;;;;5020196;28;20407;-86
2022/05/29 13:08:41;;;;;;;0.90;0.70;;;12.70;99.90;;;;;;5021092;28;20445;-85
2022/05/29 13:11:15;;;;;;;1.37;0.80;;;12.70;99.90;;;;;;5015698;28;20415;-87
2022/05/29 13:13:47;;;;;;;2.70;1.92;;;12.70;99.90;;;;;;5013366;28;20397;-87
2022/05/29 13:16:20;;;;;;;2.30;1.50;;;12.60;99.90;;;;;;5020447;28;20401;-88
2022/05/29 13:19:17;;;;;;;1.40;0.80;;;12.60;99.90;;;;;;5016191;28;20419;-88
2022/05/29 13:22:01;;;;;;;1.33;0.70;;;12.50;99.90;;;;;;5012945;28;20743;-85
2022/05/29 13:24:37;;;;;;;4.68;1.48;;;12.40;99.90;;;;;;5017013;28;20437;-83
2022/05/29 13:27:26;;;;;;;2.97;0.90;;;12.30;99.90;;;;;;5016991;28;20555;-85
2022/05/29 13:30:03;;;;;;;1.37;0.93;;;12.30;99.90;;;;;;5014001;28;20405;-85
2022/05/29 13:32:36;;;;;;;2.58;1.35;;;12.30;99.90;;;;;;5019191;28;20385;-83
2022/05/29 13:35:03;;;;;;;1.35;0.70;;;12.30;99.90;;;;;;5008438;28;20499;-85
2022/05/29 13:37:32;;;;;;;1.10;0.80;;;12.30;99.90;;;;;;5008612;28;20411;-85
2022/05/29 13:40:06;;;;;;;1.17;0.80;;;12.30;99.90;;;;;;5018458;28;20727;-84
2022/05/29 13:42:39;;;;;;;1.50;0.80;;;12.30;99.90;;;;;;5014274;28;20404;-85
2022/05/29 13:45:23;;;;;;;0.90;0.70;;;12.10;99.90;;;;;;5020461;28;20872;-84
2022/05/29 13:48:21;;;;;;;1.50;0.75;;;12.10;99.90;;;;;;5015855;28;20471;-85
2022/05/29 13:50:52;;;;;;;1.00;0.90;;;12.00;99.90;;;;;;5025020;28;20407;-84
2022/05/29 13:53:55;;;;;;;1.03;0.80;;;12.00;99.90;;;;;;5015757;28;20427;-84
2022/05/29 13:56:48;;;;;;;0.90;0.60;;;12.10;99.90;;;;;;5019672;28;20482;-85
2022/05/29 14:05:21;;;;;;;1.40;0.90;;;11.90;99.90;;;;;;5022510;28;20827;-82
2022/05/29 14:08:19;;;;;;;2.30;0.90;;;11.90;99.90;;;;;;5024137;28;20500;-85
2022/05/29 14:10:47;;;;;;;2.08;0.80;;;11.90;99.90;;;;;;5023265;28;20412;-84
2022/05/29 14:13:44;;;;;;;1.70;0.80;;;11.90;99.90;;;;;;5017512;28;20482;-84
2022/05/29 14:16:16;;;;;;;1.00;0.80;;;11.90;99.90;;;;;;5023061;28;20411;-84
2022/05/29 14:18:58;;;;;;;0.90;0.65;;;12.00;99.90;;;;;;5020993;28;20952;-86